Time;durP1;ratioP1;P1;durP2;ratioP2;P2;SDS_P1;SDS_P2;PMS_P1;PMS_P2;Temp;Humidity;BMP_temperature;BMP_pressure;BME280_temperature;BME280_humidity;BME280_pressure;Samples;Min_cycle;Max_cycle;Signal;HPM_P1;HPM_P2
2021/09/23 00:00:55;;;;;;;0.50;0.40;;;13.20;99.90;;;;;;5053323;28;20199;-81
2021/09/23 00:03:33;;;;;;;0.50;0.40;;;13.20;99.90;;;;;;5059213;28;20191;-81
2021/09/23 00:06:01;;;;;;;0.93;0.93;;;13.20;99.90;;;;;;5064889;28;20214;-82
2021/09/23 00:08:28;;;;;;;0.50;0.40;;;13.20;99.90;;;;;;5066504;28;20219;-80
2021/09/23 00:10:54;;;;;;;0.50;0.40;;;13.20;99.90;;;;;;5065470;28;20201;-81
2021/09/23 00:13:23;;;;;;;3.47;3.38;;;13.20;99.90;;;;;;5065075;28;20199;-81
2021/09/23 00:15:53;;;;;;;0.57;0.47;;;13.10;99.90;;;;;;5065623;28;20206;-81
2021/09/23 00:18:20;;;;;;;0.50;0.40;;;13.10;99.90;;;;;;5065247;28;20238;-81
2021/09/23 00:20:49;;;;;;;1.00;1.00;;;13.10;99.90;;;;;;5063959;28;20201;-81
2021/09/23 00:23:17;;;;;;;0.50;0.40;;;13.00;99.90;;;;;;5065349;28;20191;-81
2021/09/23 00:25:44;;;;;;;3.53;3.22;;;13.00;99.90;;;;;;5056480;28;20196;-81
2021/09/23 00:28:11;;;;;;;0.50;0.40;;;13.00;99.90;;;;;;5053577;28;20215;-81
2021/09/23 00:30:39;;;;;;;1.58;0.98;;;12.90;99.90;;;;;;5051712;28;20203;-80
2021/09/23 00:33:07;;;;;;;0.50;0.40;;;12.90;99.90;;;;;;5064174;28;20191;-81
2021/09/23 00:35:34;;;;;;;3.95;2.88;;;12.80;99.90;;;;;;5065318;28;20207;-81
2021/09/23 00:38:01;;;;;;;0.73;0.73;;;12.80;99.90;;;;;;5064920;28;20226;-81
2021/09/23 00:40:27;;;;;;;0.85;0.50;;;12.70;99.90;;;;;;5065411;28;20203;-81
2021/09/23 00:42:54;;;;;;;0.70;0.70;;;12.70;99.90;;;;;;5064360;28;20196;-81
2021/09/23 00:45:22;;;;;;;2.78;2.25;;;12.70;99.90;;;;;;5065242;28;20526;-81
2021/09/23 00:47:50;;;;;;;1.35;1.25;;;12.70;99.90;;;;;;5064093;28;20218;-82
2021/09/23 00:50:20;;;;;;;1.42;1.42;;;12.60;99.90;;;;;;5064639;28;20199;-81
2021/09/23 00:52:47;;;;;;;1.00;0.85;;;12.60;99.90;;;;;;5064677;28;20209;-81
2021/09/23 00:55:14;;;;;;;2.85;2.63;;;12.60;99.90;;;;;;5064679;28;20216;-82
2021/09/23 00:57:41;;;;;;;4.57;2.83;;;12.50;99.90;;;;;;5063255;28;20280;-81
2021/09/23 01:00:11;;;;;;;0.50;0.40;;;12.60;99.90;;;;;;5063104;28;20208;-81
2021/09/23 01:02:38;;;;;;;2.08;1.98;;;12.60;99.90;;;;;;5063914;28;20269;-81
2021/09/23 01:05:06;;;;;;;1.10;1.02;;;12.50;99.90;;;;;;5064972;28;20206;-81
2021/09/23 01:07:34;;;;;;;3.28;3.08;;;12.50;99.90;;;;;;5063309;28;20191;-81
2021/09/23 01:10:03;;;;;;;3.00;1.85;;;12.50;99.90;;;;;;5064817;28;20207;-81
2021/09/23 01:12:30;;;;;;;2.25;2.15;;;12.60;99.90;;;;;;5064095;28;20194;-81
2021/09/23 01:14:57;;;;;;;0.70;0.70;;;12.60;99.90;;;;;;5053814;28;20652;-80
2021/09/23 01:17:24;;;;;;;1.98;0.93;;;12.50;99.90;;;;;;5044090;28;20575;-80
2021/09/23 01:19:51;;;;;;;4.53;1.88;;;12.50;99.90;;;;;;5043459;28;20234;-81
2021/09/23 01:22:19;;;;;;;0.50;0.40;;;12.50;99.90;;;;;;5043909;28;20204;-81
2021/09/23 01:24:46;;;;;;;2.55;2.35;;;12.60;99.90;;;;;;5044427;28;20657;-79
2021/09/23 01:27:14;;;;;;;0.50;0.50;;;12.60;99.90;;;;;;5041630;28;20188;-81
2021/09/23 01:29:42;;;;;;;2.65;2.45;;;12.50;99.90;;;;;;5057787;28;20222;-81
2021/09/23 01:32:09;;;;;;;0.60;0.60;;;12.50;99.90;;;;;;5064019;28;20196;-81
2021/09/23 01:34:37;;;;;;;1.23;1.15;;;12.50;99.90;;;;;;5064137;28;20213;-81
2021/09/23 01:37:04;;;;;;;1.25;1.25;;;12.50;99.90;;;;;;5063768;28;20201;-81
2021/09/23 01:39:33;;;;;;;6.07;3.03;;;12.50;99.90;;;;;;5063570;28;20265;-81
2021/09/23 01:41:59;;;;;;;2.05;1.05;;;12.50;99.90;;;;;;5063257;28;20196;-81
2021/09/23 01:44:26;;;;;;;1.27;1.17;;;12.50;99.90;;;;;;5063410;28;20214;-80
2021/09/23 01:46:53;;;;;;;0.65;0.65;;;12.40;99.90;;;;;;5063354;28;20221;-81
2021/09/23 01:49:20;;;;;;;5.90;3.15;;;12.40;99.90;;;;;;5063387;28;20236;-81
2021/09/23 01:51:47;;;;;;;0.50;0.40;;;12.40;99.90;;;;;;5063766;28;20199;-81
2021/09/23 01:54:14;;;;;;;2.05;0.88;;;12.40;99.90;;;;;;5063016;28;20207;-81
2021/09/23 01:56:42;;;;;;;8.82;1.42;;;12.30;99.90;;;;;;5063684;28;20195;-81
2021/09/23 01:59:09;;;;;;;0.50;0.40;;;12.20;99.90;;;;;;5062819;28;20223;-81
2021/09/23 02:01:36;;;;;;;1.33;0.85;;;12.20;99.90;;;;;;5063580;28;20200;-81
2021/09/23 02:04:03;;;;;;;4.82;3.42;;;12.20;99.90;;;;;;5062200;28;20195;-81
2021/09/23 02:06:30;;;;;;;2.10;1.33;;;12.20;99.90;;;;;;5063034;28;20219;-81
2021/09/23 02:08:57;;;;;;;1.60;1.50;;;12.20;99.90;;;;;;5063956;28;20213;-80
2021/09/23 02:11:24;;;;;;;6.47;4.22;;;12.20;99.90;;;;;;5062515;28;20207;-81
2021/09/23 02:13:52;;;;;;;1.70;1.60;;;12.20;99.90;;;;;;5054529;28;20206;-81
2021/09/23 02:16:19;;;;;;;2.97;1.67;;;12.30;99.90;;;;;;5043870;28;20257;-79
2021/09/23 02:18:47;;;;;;;4.10;1.25;;;12.20;99.90;;;;;;5043776;28;20225;-81
2021/09/23 02:21:13;;;;;;;0.70;0.70;;;12.20;99.90;;;;;;5043021;28;20195;-81
2021/09/23 02:23:42;;;;;;;0.55;0.40;;;12.20;99.90;;;;;;5042686;28;20195;-81
2021/09/23 02:26:08;;;;;;;3.10;2.30;;;12.20;99.90;;;;;;5042703;28;20196;-81
2021/09/23 02:28:36;;;;;;;2.13;2.03;;;12.20;99.90;;;;;;5043191;28;20293;-81
2021/09/23 02:31:05;;;;;;;0.50;0.40;;;12.20;99.90;;;;;;5041666;28;20196;-80
2021/09/23 02:33:32;;;;;;;0.50;0.50;;;12.20;99.90;;;;;;5042946;28;20207;-81
2021/09/23 02:35:59;;;;;;;0.85;0.85;;;12.20;99.90;;;;;;5043073;28;20207;-81
2021/09/23 02:38:26;;;;;;;2.80;2.55;;;12.20;99.90;;;;;;5043119;28;20278;-81
2021/09/23 02:40:53;;;;;;;6.93;2.83;;;12.20;99.90;;;;;;5042651;28;20295;-81
2021/09/23 02:43:20;;;;;;;2.15;1.65;;;12.20;99.90;;;;;;5043541;28;20196;-81
2021/09/23 02:45:46;;;;;;;1.58;1.48;;;12.20;99.90;;;;;;5043044;28;20271;-81
2021/09/23 02:48:14;;;;;;;3.03;1.27;;;12.20;99.90;;;;;;5043159;28;20225;-81
2021/09/23 02:50:41;;;;;;;0.63;0.63;;;12.20;99.90;;;;;;5043557;28;20224;-79
2021/09/23 02:53:08;;;;;;;0.60;0.40;;;12.10;99.90;;;;;;5042634;28;20206;-81
2021/09/23 02:55:34;;;;;;;0.98;0.98;;;12.10;99.90;;;;;;5043142;28;20205;-81
2021/09/23 02:58:02;;;;;;;0.50;0.40;;;12.10;99.90;;;;;;5042986;28;20220;-80
2021/09/23 03:00:29;;;;;;;1.58;1.48;;;12.10;99.90;;;;;;5048996;28;20196;-81
2021/09/23 03:02:55;;;;;;;1.13;1.02;;;12.10;99.90;;;;;;5054340;28;20304;-81
2021/09/23 03:05:23;;;;;;;0.50;0.50;;;12.10;99.90;;;;;;5062100;28;20221;-80
2021/09/23 03:07:50;;;;;;;0.50;0.40;;;12.00;99.90;;;;;;5062636;28;20193;-81
2021/09/23 03:10:17;;;;;;;1.88;1.75;;;12.00;99.90;;;;;;5062071;28;20201;-82
2021/09/23 03:12:43;;;;;;;0.50;0.40;;;11.90;99.90;;;;;;5059249;28;20208;-80
2021/09/23 03:15:11;;;;;;;3.97;3.65;;;11.90;99.90;;;;;;5047936;28;20197;-81
2021/09/23 03:17:37;;;;;;;4.20;3.90;;;12.00;99.90;;;;;;5038880;28;20201;-80
2021/09/23 03:20:05;;;;;;;0.50;0.50;;;11.90;99.90;;;;;;5039056;28;20221;-80
2021/09/23 03:22:33;;;;;;;3.35;2.40;;;11.90;99.90;;;;;;5040710;28;20194;-81
2021/09/23 03:25:00;;;;;;;0.68;0.60;;;11.90;99.90;;;;;;5043606;28;20198;-80
2021/09/23 03:27:27;;;;;;;2.00;1.80;;;11.80;99.90;;;;;;5042752;28;20202;-81
2021/09/23 03:29:54;;;;;;;2.60;1.73;;;11.70;99.90;;;;;;5042647;28;20629;-81
2021/09/23 03:32:20;;;;;;;0.50;0.40;;;11.70;99.90;;;;;;5043240;28;20202;-81
2021/09/23 03:34:47;;;;;;;1.08;1.08;;;11.70;99.90;;;;;;5042868;28;20202;-81
2021/09/23 03:37:14;;;;;;;0.52;0.52;;;11.70;99.90;;;;;;5042795;28;20245;-82
2021/09/23 03:39:42;;;;;;;1.17;0.90;;;11.70;99.90;;;;;;5042048;28;20226;-80
2021/09/23 03:42:08;;;;;;;0.50;0.40;;;11.80;99.90;;;;;;5041985;28;20201;-82
2021/09/23 03:44:35;;;;;;;0.50;0.50;;;11.80;99.90;;;;;;5043267;28;20200;-82
2021/09/23 03:47:02;;;;;;;3.03;2.92;;;11.80;99.90;;;;;;5042813;28;20194;-81
2021/09/23 03:49:29;;;;;;;0.50;0.40;;;11.80;99.90;;;;;;5042361;28;20222;-81
2021/09/23 03:51:56;;;;;;;2.60;2.50;;;11.80;99.90;;;;;;5042128;28;20207;-81
2021/09/23 03:54:23;;;;;;;1.60;0.80;;;11.80;99.90;;;;;;5041480;28;20270;-81
2021/09/23 03:56:51;;;;;;;1.40;1.35;;;11.90;99.90;;;;;;5042110;28;20666;-81
2021/09/23 03:59:18;;;;;;;0.50;0.40;;;11.90;99.90;;;;;;5040960;28;20220;-80
2021/09/23 04:01:46;;;;;;;2.65;2.45;;;11.90;99.90;;;;;;5041769;28;20220;-80
2021/09/23 04:04:13;;;;;;;0.50;0.45;;;11.90;99.90;;;;;;5042642;28;20197;-81
2021/09/23 04:06:43;;;;;;;2.25;1.55;;;11.90;99.90;;;;;;5042860;28;20202;-81
2021/09/23 04:09:10;;;;;;;3.17;2.97;;;11.90;99.90;;;;;;5042562;28;20407;-81
2021/09/23 04:11:37;;;;;;;5.78;2.45;;;11.90;99.90;;;;;;5042912;28;20204;-80
2021/09/23 04:14:06;;;;;;;0.50;0.40;;;11.90;99.90;;;;;;5046725;28;20243;-81
2021/09/23 04:16:33;;;;;;;0.63;0.63;;;11.90;99.90;;;;;;5056679;28;20196;-81
2021/09/23 04:19:01;;;;;;;1.60;1.50;;;11.90;99.90;;;;;;5061907;28;20219;-81
2021/09/23 04:21:28;;;;;;;1.70;1.60;;;11.90;99.90;;;;;;5054187;28;20207;-80
2021/09/23 04:23:55;;;;;;;4.72;3.00;;;11.90;99.90;;;;;;5062415;28;20208;-80
2021/09/23 04:26:21;;;;;;;0.98;0.98;;;11.90;99.90;;;;;;5062317;28;20197;-81
2021/09/23 04:28:48;;;;;;;1.05;0.93;;;11.90;99.90;;;;;;5062019;28;20213;-81
2021/09/23 04:31:17;;;;;;;2.83;2.05;;;11.90;99.90;;;;;;5061182;28;20204;-79
2021/09/23 04:33:44;;;;;;;0.90;0.85;;;11.90;99.90;;;;;;5061523;28;20200;-81
2021/09/23 04:36:10;;;;;;;2.05;1.95;;;11.90;99.90;;;;;;5061703;28;20202;-80
2021/09/23 04:38:37;;;;;;;1.60;1.50;;;11.90;99.90;;;;;;5061574;28;20223;-81
2021/09/23 04:41:04;;;;;;;0.82;0.82;;;11.90;99.90;;;;;;5060702;28;20213;-81
2021/09/23 04:43:31;;;;;;;0.50;0.40;;;11.90;99.90;;;;;;5061696;28;20220;-80
2021/09/23 04:45:57;;;;;;;0.60;0.60;;;11.90;99.90;;;;;;5061598;28;20197;-80
2021/09/23 04:48:25;;;;;;;0.88;0.88;;;11.90;99.90;;;;;;5060936;28;20221;-82
2021/09/23 04:50:52;;;;;;;1.08;0.80;;;11.90;99.90;;;;;;5060700;28;20227;-81
2021/09/23 04:53:19;;;;;;;0.70;0.57;;;11.90;99.90;;;;;;5060685;28;20226;-81
2021/09/23 04:55:45;;;;;;;0.80;0.80;;;11.90;99.90;;;;;;5060918;28;20197;-80
2021/09/23 04:58:12;;;;;;;8.48;2.63;;;11.90;99.90;;;;;;5060909;28;20221;-80
2021/09/23 05:00:39;;;;;;;1.73;1.63;;;11.80;99.90;;;;;;5059491;28;20196;-80
2021/09/23 05:03:06;;;;;;;1.30;0.98;;;11.80;99.90;;;;;;5059771;28;20205;-81
2021/09/23 05:05:34;;;;;;;1.73;1.60;;;11.80;99.90;;;;;;5063348;28;20203;-81
2021/09/23 05:08:00;;;;;;;0.60;0.40;;;11.80;99.90;;;;;;5062967;28;20220;-81
2021/09/23 05:10:27;;;;;;;1.60;1.30;;;11.80;99.90;;;;;;5062259;28;20196;-81
2021/09/23 05:12:54;;;;;;;1.45;1.35;;;11.80;99.90;;;;;;5063234;28;20199;-81
2021/09/23 05:15:20;;;;;;;2.70;1.10;;;11.80;99.90;;;;;;5050092;28;20558;-81
2021/09/23 05:17:47;;;;;;;6.85;4.20;;;11.80;99.90;;;;;;5042077;28;20200;-81
2021/09/23 05:20:15;;;;;;;4.03;3.00;;;11.80;99.90;;;;;;5042398;28;20208;-81
2021/09/23 05:22:43;;;;;;;0.50;0.40;;;11.80;99.90;;;;;;5041945;28;20200;-81
2021/09/23 05:25:10;;;;;;;4.82;2.80;;;11.70;99.90;;;;;;5086658;22;20224;-78
2021/09/23 05:27:37;;;;;;;0.82;0.82;;;11.70;99.90;;;;;;5071492;28;20619;-77
2021/09/23 05:30:06;;;;;;;5.75;1.80;;;11.70;99.90;;;;;;5071046;28;20190;-74
2021/09/23 05:32:32;;;;;;;2.25;2.15;;;11.80;99.90;;;;;;5071812;28;20245;-78
2021/09/23 05:34:59;;;;;;;0.50;0.40;;;11.80;99.90;;;;;;5071993;28;20620;-77
2021/09/23 05:37:26;;;;;;;1.67;1.60;;;11.80;99.90;;;;;;5071131;28;20234;-75
2021/09/23 05:39:54;;;;;;;2.58;2.38;;;11.80;99.90;;;;;;5071072;28;20237;-77
2021/09/23 05:42:21;;;;;;;1.50;1.05;;;11.80;99.90;;;;;;5071817;28;20190;-77
2021/09/23 05:44:47;;;;;;;0.77;0.77;;;11.70;99.90;;;;;;5070734;28;20212;-77
2021/09/23 05:47:14;;;;;;;2.08;1.42;;;11.70;99.90;;;;;;5071457;28;20199;-77
2021/09/23 05:49:41;;;;;;;0.60;0.40;;;11.70;99.90;;;;;;5071411;28;20196;-78
2021/09/23 05:52:09;;;;;;;0.50;0.40;;;11.70;99.90;;;;;;5071412;28;20656;-77
2021/09/23 05:54:35;;;;;;;3.65;2.55;;;11.70;99.90;;;;;;5071030;28;20216;-77
2021/09/23 05:57:04;;;;;;;0.77;0.77;;;11.80;99.90;;;;;;5071034;28;20200;-77
2021/09/23 05:59:30;;;;;;;0.70;0.50;;;11.80;99.90;;;;;;5071078;28;20208;-77
2021/09/23 06:01:57;;;;;;;3.50;2.25;;;11.80;99.90;;;;;;5071365;28;20274;-77
2021/09/23 06:04:24;;;;;;;2.25;1.13;;;11.90;99.90;;;;;;5071229;28;20218;-78
2021/09/23 06:06:51;;;;;;;4.97;2.30;;;11.90;99.90;;;;;;5070843;28;20680;-76
2021/09/23 06:09:18;;;;;;;0.57;0.40;;;12.00;99.90;;;;;;5071246;28;20700;-77
2021/09/23 06:11:45;;;;;;;2.78;2.58;;;12.00;99.90;;;;;;5070989;28;20195;-78
2021/09/23 06:14:13;;;;;;;1.83;1.73;;;12.10;99.90;;;;;;5063080;28;20259;-77
2021/09/23 06:16:40;;;;;;;1.25;1.15;;;12.20;99.90;;;;;;5067105;28;20202;-77
2021/09/23 06:19:07;;;;;;;0.60;0.50;;;12.30;99.90;;;;;;5071114;28;20683;-77
2021/09/23 06:21:34;;;;;;;2.05;1.73;;;12.40;99.90;;;;;;5070855;28;20198;-78
2021/09/23 06:24:01;;;;;;;3.95;2.95;;;12.50;99.90;;;;;;5070875;28;20703;-78
2021/09/23 06:26:28;;;;;;;0.60;0.60;;;12.60;99.90;;;;;;5071508;28;20202;-78
2021/09/23 06:28:55;;;;;;;0.68;0.65;;;12.70;99.90;;;;;;5071689;28;20194;-77
2021/09/23 06:31:23;;;;;;;1.88;1.48;;;12.80;99.90;;;;;;5070676;28;20668;-77
2021/09/23 06:33:50;;;;;;;1.95;1.08;;;12.90;99.90;;;;;;5071233;28;20224;-76
2021/09/23 06:36:17;;;;;;;3.03;2.83;;;13.00;99.90;;;;;;5070983;28;20253;-78
2021/09/23 06:38:44;;;;;;;4.45;1.85;;;13.70;99.90;;;;;;5071414;28;20191;-78
2021/09/23 06:41:11;;;;;;;1.92;1.85;;;14.50;99.90;;;;;;5071308;28;20201;-79
2021/09/23 06:43:38;;;;;;;0.50;0.50;;;15.00;99.90;;;;;;5070954;28;20240;-78
2021/09/23 06:46:05;;;;;;;1.73;1.27;;;15.10;99.90;;;;;;5070941;28;20193;-78
2021/09/23 06:48:33;;;;;;;0.50;0.50;;;15.20;99.90;;;;;;5071038;28;20568;-78
2021/09/23 06:51:00;;;;;;;2.90;0.80;;;15.40;99.90;;;;;;5071004;28;20208;-77
2021/09/23 06:53:27;;;;;;;2.20;1.43;;;16.20;99.90;;;;;;5070711;28;20230;-77
2021/09/23 06:55:53;;;;;;;7.70;1.47;;;16.50;99.90;;;;;;5070855;28;20941;-76
2021/09/23 06:58:20;;;;;;;0.80;0.70;;;16.60;99.90;;;;;;5072435;28;20966;-78
2021/09/23 07:00:47;;;;;;;0.90;0.87;;;16.50;99.90;;;;;;5074925;28;20473;-77
2021/09/23 07:03:14;;;;;;;0.50;0.40;;;16.60;99.90;;;;;;5074779;28;20441;-77
2021/09/23 07:05:43;;;;;;;1.10;1.10;;;16.30;99.90;;;;;;5074581;28;20460;-79
2021/09/23 07:08:10;;;;;;;2.03;1.67;;;16.10;99.90;;;;;;5074624;28;20937;-77
2021/09/23 07:10:36;;;;;;;3.90;1.20;;;15.50;99.90;;;;;;5074177;28;20434;-76
2021/09/23 07:13:03;;;;;;;4.20;2.87;;;15.20;99.90;;;;;;5074053;28;20450;-76
2021/09/23 07:15:30;;;;;;;3.63;3.07;;;15.20;99.90;;;;;;5066076;28;20466;-77
2021/09/23 07:17:57;;;;;;;0.63;0.63;;;15.30;99.90;;;;;;5074680;28;20443;-78
2021/09/23 07:20:24;;;;;;;3.37;2.50;;;15.40;99.90;;;;;;5073745;28;20304;-77
2021/09/23 07:22:53;;;;;;;1.60;1.45;;;15.40;99.90;;;;;;5074846;28;20441;-77
2021/09/23 07:25:23;;;;;;;8.70;1.97;;;15.30;99.90;;;;;;5073803;28;20228;-76
2021/09/23 07:27:50;;;;;;;0.50;0.40;;;15.10;99.90;;;;;;5074798;28;20888;-77
2021/09/23 07:30:16;;;;;;;2.50;1.90;;;15.00;99.90;;;;;;5073939;28;20197;-78
2021/09/23 07:32:43;;;;;;;0.70;0.70;;;15.20;99.90;;;;;;5074540;28;20459;-78
2021/09/23 07:35:10;;;;;;;7.30;0.97;;;15.30;99.90;;;;;;5074102;28;20459;-78
2021/09/23 07:37:37;;;;;;;2.10;1.70;;;15.40;99.90;;;;;;5074350;28;20429;-77
2021/09/23 07:40:07;;;;;;;1.77;1.67;;;15.50;99.90;;;;;;5073925;28;20821;-77
2021/09/23 07:42:34;;;;;;;2.67;2.47;;;15.80;99.90;;;;;;5074525;28;20466;-75
2021/09/23 07:45:01;;;;;;;1.50;1.40;;;16.90;99.90;;;;;;5073999;28;20467;-77
2021/09/23 07:47:28;;;;;;;3.03;2.87;;;17.60;99.90;;;;;;5073991;28;21161;-77
2021/09/23 07:49:55;;;;;;;0.50;0.40;;;18.40;99.90;;;;;;5073580;28;20848;-77
2021/09/23 07:52:21;;;;;;;3.43;2.23;;;19.80;99.90;;;;;;5073347;28;20852;-78
2021/09/23 07:54:52;;;;;;;0.67;0.67;;;20.50;99.90;;;;;;5073674;28;20460;-77
2021/09/23 07:57:20;;;;;;;3.90;2.33;;;20.90;99.90;;;;;;5073500;28;20467;-78
2021/09/23 07:59:47;;;;;;;0.60;0.60;;;21.20;99.90;;;;;;5070094;28;20870;-78
2021/09/23 08:02:14;;;;;;;2.57;1.57;;;21.10;99.90;;;;;;5053141;28;20460;-78
2021/09/23 08:04:40;;;;;;;1.93;1.83;;;20.90;99.90;;;;;;5053554;28;20469;-79
2021/09/23 08:07:07;;;;;;;4.73;4.40;;;21.20;99.90;;;;;;5053687;28;20438;-78
2021/09/23 08:09:34;;;;;;;1.93;1.83;;;20.80;99.90;;;;;;5052859;28;20484;-78
2021/09/23 08:12:00;;;;;;;0.50;0.30;;;21.10;99.90;;;;;;5053293;28;20492;-77
2021/09/23 08:14:28;;;;;;;0.93;0.93;;;21.50;99.90;;;;;;5065576;28;20981;-77
2021/09/23 08:16:55;;;;;;;1.00;0.77;;;22.00;99.90;;;;;;5071025;28;20506;-78
2021/09/23 08:19:22;;;;;;;0.90;0.90;;;22.40;99.90;;;;;;5072596;28;20550;-78
2021/09/23 08:21:49;;;;;;;2.20;2.00;;;22.50;99.90;;;;;;5073111;28;20436;-77
2021/09/23 08:24:16;;;;;;;2.87;1.63;;;22.30;99.90;;;;;;5073134;28;20468;-78
2021/09/23 08:26:42;;;;;;;4.83;3.63;;;21.70;99.90;;;;;;5072973;28;20485;-78
2021/09/23 08:29:09;;;;;;;1.60;1.50;;;21.30;99.90;;;;;;5073154;28;20443;-78
2021/09/23 08:31:37;;;;;;;2.57;2.40;;;21.70;99.90;;;;;;5072731;28;20447;-77
2021/09/23 08:34:04;;;;;;;0.83;0.83;;;22.50;99.90;;;;;;5073382;28;20456;-78
2021/09/23 08:36:31;;;;;;;7.20;3.27;;;23.20;99.90;;;;;;5072950;28;20474;-77
2021/09/23 08:38:58;;;;;;;0.90;0.60;;;23.80;99.60;;;;;;5072981;28;20440;-77
2021/09/23 08:41:25;;;;;;;0.50;0.40;;;23.70;98.70;;;;;;5072722;28;21030;-78
2021/09/23 08:43:51;;;;;;;1.07;0.97;;;24.10;97.90;;;;;;5072998;28;20784;-78
2021/09/23 08:46:19;;;;;;;1.00;1.00;;;23.90;94.70;;;;;;5073103;28;20518;-78
2021/09/23 08:48:48;;;;;;;0.60;0.60;;;24.00;95.30;;;;;;5072882;28;20502;-78
2021/09/23 08:51:15;;;;;;;5.83;3.73;;;24.30;94.10;;;;;;5072809;28;20437;-77
2021/09/23 08:53:42;;;;;;;0.97;0.77;;;23.60;93.80;;;;;;5072741;28;20460;-78
2021/09/23 08:56:12;;;;;;;11.17;2.70;;;23.40;96.20;;;;;;5073094;28;20440;-77
2021/09/23 08:58:39;;;;;;;6.00;3.47;;;23.40;95.70;;;;;;5072151;28;20440;-77
2021/09/23 09:01:08;;;;;;;0.70;0.70;;;23.00;96.70;;;;;;5072264;28;20507;-78
2021/09/23 09:03:36;;;;;;;0.50;0.37;;;23.40;98.80;;;;;;5072487;28;20440;-78
2021/09/23 09:06:06;;;;;;;1.53;1.43;;;24.70;95.50;;;;;;5072417;28;20444;-78
2021/09/23 09:08:34;;;;;;;4.67;1.70;;;25.20;91.20;;;;;;5072287;28;20445;-78
2021/09/23 09:11:03;;;;;;;0.70;0.70;;;24.80;90.30;;;;;;5072093;28;20501;-78
2021/09/23 09:13:34;;;;;;;1.87;1.70;;;24.90;90.80;;;;;;5071791;28;20496;-77
2021/09/23 09:16:08;;;;;;;4.97;2.57;;;24.40;90.30;;;;;;5063924;28;20433;-77
2021/09/23 09:18:36;;;;;;;2.80;1.70;;;24.20;90.90;;;;;;5071204;28;20448;-78
2021/09/23 09:21:07;;;;;;;2.97;2.77;;;23.70;91.00;;;;;;5071343;28;20499;-77
2021/09/23 09:23:40;;;;;;;0.73;0.73;;;23.40;93.40;;;;;;5072424;28;20501;-78
2021/09/23 09:26:07;;;;;;;1.83;1.70;;;23.80;93.50;;;;;;5072742;28;20836;-77
2021/09/23 09:28:45;;;;;;;1.17;0.80;;;24.30;91.60;;;;;;5071663;28;20437;-78
2021/09/23 09:31:11;;;;;;;1.43;1.13;;;24.90;88.60;;;;;;5071455;28;20514;-76
2021/09/23 09:33:40;;;;;;;2.73;2.30;;;25.10;87.90;;;;;;5071950;28;20452;-78
2021/09/23 09:36:26;;;;;;;2.00;1.07;;;25.60;84.20;;;;;;5072985;28;20441;-80
2021/09/23 09:38:53;;;;;;;0.50;0.40;;;26.00;85.40;;;;;;5072722;28;20422;-79
2021/09/23 09:41:24;;;;;;;2.03;1.27;;;25.90;81.90;;;;;;5071376;28;20485;-77
2021/09/23 09:43:51;;;;;;;0.90;0.90;;;25.90;81.00;;;;;;5072294;28;20492;-78
2021/09/23 09:46:24;;;;;;;0.63;0.63;;;25.20;82.80;;;;;;5073054;28;20434;-79
2021/09/23 09:48:53;;;;;;;1.33;1.27;;;25.40;81.00;;;;;;5068904;28;20881;-77
2021/09/23 09:51:23;;;;;;;0.60;0.50;;;25.40;80.10;;;;;;5051521;28;20458;-77
2021/09/23 09:53:58;;;;;;;5.60;0.73;;;25.70;81.40;;;;;;5052457;28;20469;-77
2021/09/23 09:56:25;;;;;;;1.30;1.20;;;26.10;79.80;;;;;;5051719;28;20474;-76
2021/09/23 09:59:05;;;;;;;1.83;1.17;;;26.70;75.70;;;;;;5052232;28;20445;-78
2021/09/23 10:01:32;;;;;;;1.53;0.80;;;26.50;74.30;;;;;;5052317;28;21177;-78
2021/09/23 10:03:59;;;;;;;3.13;2.20;;;26.20;75.30;;;;;;5069673;28;20461;-79
2021/09/23 10:06:28;;;;;;;0.73;0.73;;;25.50;75.70;;;;;;5072783;28;20491;-75
2021/09/23 10:08:56;;;;;;;0.60;0.40;;;25.70;77.00;;;;;;5072412;28;20438;-79
2021/09/23 10:11:23;;;;;;;0.50;0.40;;;25.90;77.20;;;;;;5072433;28;20445;-80
2021/09/23 10:13:50;;;;;;;11.73;1.27;;;26.70;75.60;;;;;;5071428;28;20464;-77
2021/09/23 10:16:17;;;;;;;1.27;1.27;;;27.00;74.20;;;;;;5065249;28;20437;-79
2021/09/23 10:18:44;;;;;;;0.80;0.80;;;27.50;73.20;;;;;;5071836;28;20441;-78
2021/09/23 10:21:11;;;;;;;0.60;0.50;;;26.90;74.10;;;;;;5072626;28;20868;-79
2021/09/23 10:23:40;;;;;;;0.50;0.30;;;26.60;73.80;;;;;;5072812;28;20433;-80
2021/09/23 10:26:09;;;;;;;0.87;0.87;;;26.50;74.70;;;;;;5073406;28;20466;-77
2021/09/23 10:28:37;;;;;;;0.60;0.50;;;26.00;74.00;;;;;;5071645;28;20449;-77
2021/09/23 10:31:09;;;;;;;0.80;0.40;;;25.00;76.60;;;;;;5062086;28;20442;-77
2021/09/23 10:33:35;;;;;;;10.53;1.23;;;25.00;79.60;;;;;;5060100;28;20443;-75
2021/09/23 10:36:03;;;;;;;1.00;0.70;;;25.10;78.90;;;;;;5055530;28;20442;-77
2021/09/23 10:38:30;;;;;;;0.87;0.77;;;25.30;80.20;;;;;;5055679;28;20441;-73
2021/09/23 10:40:59;;;;;;;0.90;0.90;;;25.40;79.40;;;;;;5055501;28;20826;-78
2021/09/23 10:43:26;;;;;;;1.00;0.90;;;25.80;80.00;;;;;;5055271;28;20437;-77
2021/09/23 10:45:54;;;;;;;0.63;0.63;;;26.40;80.70;;;;;;5055396;28;20442;-78
2021/09/23 10:48:22;;;;;;;0.90;0.77;;;26.70;78.20;;;;;;5060545;28;20864;-79
2021/09/23 10:50:49;;;;;;;1.20;0.97;;;27.10;75.80;;;;;;5075145;28;20468;-77
2021/09/23 10:53:16;;;;;;;0.50;0.40;;;26.50;77.00;;;;;;5075247;28;20444;-76
2021/09/23 10:55:43;;;;;;;8.13;2.17;;;27.10;78.20;;;;;;5074953;28;20465;-77
2021/09/23 10:58:13;;;;;;;1.73;0.90;;;26.20;77.90;;;;;;5074976;28;20530;-76
2021/09/23 11:00:41;;;;;;;0.50;0.40;;;26.40;80.90;;;;;;5074536;28;20909;-78
2021/09/23 11:03:09;;;;;;;1.10;1.03;;;26.90;79.10;;;;;;5074924;28;20862;-79
2021/09/23 11:05:38;;;;;;;0.50;0.40;;;27.10;79.00;;;;;;5074938;28;20466;-77
2021/09/23 11:08:10;;;;;;;0.50;0.30;;;27.20;80.00;;;;;;5074452;28;20436;-77
2021/09/23 11:10:39;;;;;;;0.50;0.30;;;27.30;79.50;;;;;;5074179;28;20895;-77
2021/09/23 11:13:06;;;;;;;0.50;0.40;;;27.80;78.60;;;;;;5072046;28;20442;-77
2021/09/23 11:15:36;;;;;;;0.50;0.30;;;28.40;78.50;;;;;;5054245;28;20459;-77
2021/09/23 11:18:04;;;;;;;0.73;0.63;;;28.80;74.90;;;;;;5054887;28;20444;-77
2021/09/23 11:20:32;;;;;;;1.53;1.43;;;28.60;74.50;;;;;;5058068;28;20472;-78
2021/09/23 11:23:02;;;;;;;1.30;1.27;;;28.50;73.80;;;;;;5072481;28;20530;-77
2021/09/23 11:25:34;;;;;;;0.57;0.50;;;27.70;74.30;;;;;;5074220;28;20485;-77
2021/09/23 11:28:02;;;;;;;6.17;1.07;;;27.20;75.70;;;;;;5074790;28;20928;-77
2021/09/23 11:30:30;;;;;;;1.90;1.80;;;27.10;77.80;;;;;;5074010;28;20449;-77
2021/09/23 11:33:01;;;;;;;2.03;1.03;;;26.10;78.50;;;;;;5066291;28;20455;-76
2021/09/23 11:35:29;;;;;;;0.50;0.30;;;25.30;82.70;;;;;;5068334;28;20458;-76
2021/09/23 11:37:57;;;;;;;1.43;0.93;;;25.20;85.40;;;;;;5074675;28;20442;-79
2021/09/23 11:40:26;;;;;;;0.50;0.30;;;25.30;85.20;;;;;;5074189;28;20470;-78
2021/09/23 11:42:54;;;;;;;0.50;0.30;;;25.60;88.10;;;;;;5073927;28;20779;-77
2021/09/23 11:45:22;;;;;;;1.43;1.10;;;26.50;82.90;;;;;;5074419;28;20466;-78
2021/09/23 11:47:52;;;;;;;1.67;1.57;;;26.50;80.70;;;;;;5073712;28;20468;-77
2021/09/23 11:50:42;;;;;;;0.80;0.80;;;26.30;81.00;;;;;;5074319;28;20432;-76
2021/09/23 11:53:12;;;;;;;0.87;0.87;;;26.50;82.50;;;;;;5071219;28;20946;-77
2021/09/23 11:55:42;;;;;;;0.50;0.30;;;26.90;80.90;;;;;;5073816;28;20542;-77
2021/09/23 11:58:11;;;;;;;3.53;1.00;;;26.70;82.90;;;;;;5073750;28;20530;-77
2021/09/23 12:00:40;;;;;;;0.60;0.40;;;26.60;81.60;;;;;;5074453;28;20480;-78
2021/09/23 12:03:07;;;;;;;0.57;0.50;;;26.90;80.40;;;;;;5074351;28;20430;-77
2021/09/23 12:05:34;;;;;;;0.57;0.43;;;26.50;80.60;;;;;;5066142;28;20481;-78
2021/09/23 12:08:11;;;;;;;0.50;0.30;;;26.50;81.30;;;;;;5065565;28;20432;-77
2021/09/23 12:10:45;;;;;;;0.50;0.40;;;26.80;81.00;;;;;;5068097;28;20434;-76
2021/09/23 12:13:17;;;;;;;0.50;0.30;;;26.40;81.20;;;;;;5060522;28;20992;-77
2021/09/23 12:15:50;;;;;;;0.60;0.50;;;25.90;82.90;;;;;;5057681;28;20821;-77
2021/09/23 12:18:17;;;;;;;2.80;1.40;;;26.10;85.40;;;;;;5071277;28;20456;-75
2021/09/23 12:20:46;;;;;;;0.50;0.30;;;25.70;85.30;;;;;;5073415;28;20486;-75
2021/09/23 12:23:25;;;;;;;0.60;0.50;;;25.50;89.10;;;;;;5073384;28;20447;-76
2021/09/23 12:26:10;;;;;;;3.13;2.40;;;24.90;88.60;;;;;;5072798;28;20483;-77
2021/09/23 12:28:42;;;;;;;0.80;0.50;;;24.30;90.90;;;;;;5072385;28;20427;-78
2021/09/23 12:31:11;;;;;;;0.50;0.40;;;23.90;92.90;;;;;;5071928;28;20438;-77
2021/09/23 12:33:51;;;;;;;0.63;0.63;;;23.70;95.40;;;;;;5072387;28;20449;-78
2021/09/23 12:36:19;;;;;;;6.20;3.83;;;23.30;98.50;;;;;;5072643;28;20491;-77
2021/09/23 12:38:48;;;;;;;0.50;0.30;;;23.10;99.90;;;;;;5071713;28;20536;-79
2021/09/23 12:41:20;;;;;;;0.87;0.87;;;22.90;99.90;;;;;;5068094;28;20476;-77
2021/09/23 12:43:47;;;;;;;0.97;0.93;;;22.80;99.90;;;;;;5064282;28;20530;-77
2021/09/23 12:46:14;;;;;;;0.50;0.40;;;23.20;99.90;;;;;;5057481;28;20440;-78
2021/09/23 12:48:42;;;;;;;0.50;0.30;;;23.70;99.90;;;;;;5073452;28;20442;-77